Time;durP1;ratioP1;P1;durP2;ratioP2;P2;SDS_P1;SDS_P2;PMS_P1;PMS_P2;Temp;Humidity;BMP_temperature;BMP_pressure;BME280_temperature;BME280_humidity;BME280_pressure;Samples;Min_cycle;Max_cycle;Signal;HPM_P1;HPM_P2
2021/12/06 00:00:47;;;;;;;20.95;11.70;;;;;;;0.91;100.00;101362.78;5026752;28;20108;-72
2021/12/06 00:03:20;;;;;;;19.25;11.32;;;;;;;0.90;100.00;101355.09;5024397;28;20033;-72
2021/12/06 00:05:46;;;;;;;18.48;10.13;;;;;;;0.48;100.00;101286.97;5027443;28;20033;-72
2021/12/06 00:08:11;;;;;;;24.33;11.18;;;;;;;0.93;100.00;101345.38;5028096;28;20033;-72
2021/12/06 00:10:37;;;;;;;24.05;11.85;;;;;;;1.14;100.00;101373.81;5029612;28;20029;-72
2021/12/06 00:13:02;;;;;;;19.17;11.38;;;;;;;1.13;100.00;101386.00;5024717;28;20037;-72
2021/12/06 00:15:32;;;;;;;24.55;12.65;;;;;;;1.06;100.00;101371.59;5026067;28;20033;-72
2021/12/06 00:17:58;;;;;;;22.23;13.48;;;;;;;1.12;100.00;101368.69;5019431;28;21258;-72
2021/12/06 00:20:23;;;;;;;22.65;11.82;;;;;;;1.22;100.00;101382.94;5023740;28;20068;-72
2021/12/06 00:22:49;;;;;;;20.05;10.93;;;;;;;1.26;100.00;101375.78;5026009;28;20033;-72
2021/12/06 00:25:15;;;;;;;24.98;13.75;;;;;;;1.04;100.00;101347.44;5020767;28;20393;-72
2021/12/06 00:27:41;;;;;;;24.92;12.43;;;;;;;1.07;100.00;101381.09;5020608;28;20125;-72
2021/12/06 00:30:11;;;;;;;21.63;11.95;;;;;;;1.01;100.00;101378.78;5025407;28;20036;-73
2021/12/06 00:32:37;;;;;;;19.48;11.32;;;;;;;1.06;100.00;101395.00;5021187;28;20021;-71
2021/12/06 00:35:03;;;;;;;27.33;13.43;;;;;;;0.97;100.00;101385.03;5027110;28;20459;-72
2021/12/06 00:37:41;;;;;;;24.67;11.63;;;;;;;1.17;100.00;101402.25;5021388;28;20026;-72
2021/12/06 00:40:08;;;;;;;23.52;11.55;;;;;;;1.10;100.00;101393.94;5020866;28;20477;-72
2021/12/06 00:42:34;;;;;;;24.30;12.93;;;;;;;1.26;100.00;101424.38;5023925;28;20033;-72
2021/12/06 00:45:02;;;;;;;21.38;11.60;;;;;;;1.29;100.00;101421.63;5020098;28;20489;-72
2021/12/06 00:47:28;;;;;;;27.35;13.57;;;;;;;1.21;100.00;101407.22;5024287;28;20131;-72
2021/12/06 00:49:53;;;;;;;25.40;12.85;;;;;;;1.25;100.00;101413.13;5023928;28;20025;-72
2021/12/06 00:52:19;;;;;;;21.27;11.15;;;;;;;1.20;100.00;101400.38;5021738;28;20083;-72
2021/12/06 00:54:46;;;;;;;24.45;11.60;;;;;;;1.29;100.00;101408.63;5003984;28;20069;-72
2021/12/06 00:57:13;;;;;;;25.20;13.25;;;;;;;1.26;100.00;101409.59;5022631;28;20037;-72
2021/12/06 00:59:39;;;;;;;25.13;13.40;;;;;;;1.28;100.00;101409.53;5024080;28;20022;-72
2021/12/06 01:02:06;;;;;;;26.38;13.70;;;;;;;1.15;100.00;101404.09;5021900;28;20076;-72
2021/12/06 01:04:36;;;;;;;21.83;11.73;;;;;;;1.06;100.00;101386.34;5024294;28;20026;-72
2021/12/06 01:07:04;;;;;;;23.52;12.25;;;;;;;1.03;100.00;101402.94;5019205;28;20534;-72
2021/12/06 01:09:29;;;;;;;14.57;9.70;;;;;;;0.91;100.00;101414.75;5027553;28;20021;-72
2021/12/06 01:11:55;;;;;;;22.40;11.63;;;;;;;1.01;100.00;101416.00;4999441;28;1087226;-72
2021/12/06 01:14:21;;;;;;;24.50;13.43;;;;;;;1.06;100.00;101409.75;5023369;28;20418;-72
2021/12/06 01:16:46;;;;;;;21.70;10.57;;;;;;;0.99;100.00;101411.81;5032266;28;20492;-72
2021/12/06 01:19:12;;;;;;;28.10;12.43;;;;;;;0.96;100.00;101401.56;5022966;28;20476;-72
2021/12/06 01:24:08;;;;;;;23.40;12.63;;;;;;;0.96;100.00;101409.38;5022905;28;20037;-72
2021/12/06 01:39:10;;;;;;;24.45;13.23;;;;;;;1.14;100.00;101412.81;5019287;28;20048;-72
2021/12/06 01:39:45;;;;;;;22.67;12.52;;;;;;;0.95;100.00;101399.88;5019664;28;20040;-72
2021/12/06 01:42:10;;;;;;;27.25;14.10;;;;;;;0.95;100.00;101412.88;5022153;28;20120;-72
2021/12/06 01:44:42;;;;;;;22.45;13.93;;;;;;;1.06;100.00;101428.78;5020328;28;20037;-72
2021/12/06 01:47:13;;;;;;;26.38;12.88;;;;;;;1.07;100.00;101435.69;5024639;28;20057;-72
2021/12/06 01:49:46;;;;;;;23.57;12.53;;;;;;;0.93;100.00;101422.50;5017909;28;20032;-72
2021/12/06 01:52:21;;;;;;;27.05;13.15;;;;;;;1.04;100.00;101441.00;5021422;28;20482;-72
2021/12/06 01:54:47;;;;;;;24.02;12.52;;;;;;;1.11;100.00;101442.41;5016792;28;20025;-72
2021/12/06 01:57:13;;;;;;;27.73;12.68;;;;;;;1.08;100.00;101441.72;5020266;28;20394;-72
2021/12/06 01:59:39;;;;;;;23.98;12.40;;;;;;;1.09;100.00;101444.25;5023006;28;20024;-72
2021/12/06 02:02:05;;;;;;;24.73;12.88;;;;;;;1.09;100.00;101433.84;5008799;28;20163;-72
2021/12/06 02:04:33;;;;;;;24.27;12.90;;;;;;;1.01;100.00;101425.56;5023050;28;20040;-72
2021/12/06 02:07:00;;;;;;;26.20;14.05;;;;;;;1.09;100.00;101433.84;5021540;28;20386;-72
2021/12/06 02:09:27;;;;;;;24.58;12.75;;;;;;;0.97;100.00;101440.47;5023302;28;20160;-72
2021/12/06 02:11:54;;;;;;;26.52;13.32;;;;;;;0.93;100.00;101436.31;5024195;28;20105;-73
2021/12/06 02:17:14;;;;;;;29.05;13.48;;;;;;;0.78;100.00;101406.75;5023331;28;20490;-72
2021/12/06 02:19:45;;;;;;;28.05;14.32;;;;;;;0.91;100.00;101430.34;5022125;28;20101;-72
2021/12/06 02:22:23;;;;;;;29.52;14.98;;;;;;;0.89;100.00;101426.16;5019751;28;20025;-72
2021/12/06 02:24:52;;;;;;;26.50;12.75;;;;;;;0.90;100.00;101430.44;5020353;28;20014;-73
2021/12/06 02:27:17;;;;;;;26.85;13.18;;;;;;;0.82;100.00;101428.22;5021100;28;20493;-72
2021/12/06 02:29:46;;;;;;;28.90;15.32;;;;;;;0.86;100.00;101440.13;5019941;28;20033;-72
2021/12/06 02:32:14;;;;;;;24.35;12.10;;;;;;;0.93;100.00;101438.09;5026218;28;20059;-72
2021/12/06 02:34:43;;;;;;;26.48;13.50;;;;;;;0.89;100.00;101436.53;5023220;28;20040;-72
2021/12/06 02:37:10;;;;;;;24.27;12.95;;;;;;;0.90;100.00;101427.84;5022209;28;20021;-72
2021/12/06 02:39:38;;;;;;;27.75;13.95;;;;;;;0.98;100.00;101444.75;5023872;28;20120;-73
2021/12/06 02:42:05;;;;;;;22.80;12.65;;;;;;;0.99;100.00;101437.81;5027508;28;20064;-73
2021/12/06 02:44:31;;;;;;;24.10;12.98;;;;;;;0.94;100.00;101429.41;5018225;28;20100;-72
2021/12/06 02:46:56;;;;;;;26.70;14.43;;;;;;;1.00;100.00;101436.88;5018621;28;20041;-72
2021/12/06 02:49:22;;;;;;;26.92;12.70;;;;;;;0.94;100.00;101445.00;5024802;28;20042;-72
2021/12/06 02:51:50;;;;;;;23.33;10.93;;;;;;;0.69;100.00;101414.94;5021552;28;20037;-72
2021/12/06 02:54:19;;;;;;;19.08;11.85;;;;;;;0.76;100.00;101437.16;5020296;28;20060;-72
2021/12/06 02:57:06;;;;;;;25.10;13.32;;;;;;;0.77;100.00;101444.00;5019099;28;20057;-72
2021/12/06 02:59:32;;;;;;;20.77;10.23;;;;;;;0.80;100.00;101443.84;5017931;28;20060;-72
2021/12/06 03:02:02;;;;;;;25.70;14.25;;;;;;;0.84;100.00;101443.72;5019644;28;20468;-73
2021/12/06 03:04:28;;;;;;;28.63;14.10;;;;;;;0.72;100.00;101435.59;5024435;28;20085;-72
2021/12/06 03:06:55;;;;;;;26.25;11.93;;;;;;;0.69;100.00;101427.94;5017003;28;20022;-73
2021/12/06 03:09:26;;;;;;;31.75;14.20;;;;;;;0.79;100.00;101449.97;5026032;28;20026;-72
2021/12/06 03:12:04;;;;;;;28.52;13.30;;;;;;;0.77;100.00;101450.97;5024449;28;20057;-72
2021/12/06 03:14:33;;;;;;;28.42;13.63;;;;;;;0.73;100.00;101457.22;5021126;28;20525;-72
2021/12/06 03:17:01;;;;;;;27.58;11.27;;;;;;;0.74;100.00;101466.69;5021025;28;20025;-72
2021/12/06 03:19:27;;;;;;;28.98;13.65;;;;;;;0.72;100.00;101456.41;5025744;28;20106;-72
2021/12/06 03:21:52;;;;;;;30.25;14.02;;;;;;;0.72;100.00;101464.19;5022099;28;20060;-72
2021/12/06 03:24:18;;;;;;;31.77;13.23;;;;;;;0.69;100.00;101446.13;5022534;28;20551;-72
2021/12/06 03:26:46;;;;;;;33.60;15.77;;;;;;;0.69;100.00;101440.94;5022593;28;20497;-72
2021/12/06 03:29:11;;;;;;;29.05;15.63;;;;;;;0.60;100.00;101437.00;5018563;28;20030;-72
2021/12/06 03:31:37;;;;;;;33.75;13.88;;;;;;;0.80;100.00;101464.66;5022508;28;20025;-72
2021/12/06 03:34:05;;;;;;;32.13;15.93;;;;;;;0.84;100.00;101469.72;5022572;28;20459;-72
2021/12/06 03:36:32;;;;;;;33.25;16.73;;;;;;;0.72;100.00;101461.59;5022005;28;20071;-73
2021/12/06 03:38:59;;;;;;;29.45;13.82;;;;;;;0.86;100.00;101478.28;5008809;28;20033;-72
2021/12/06 03:41:27;;;;;;;33.40;13.98;;;;;;;0.62;100.00;101449.94;5025784;28;20508;-72
2021/12/06 03:43:53;;;;;;;30.95;15.43;;;;;;;0.87;100.00;101480.81;5025626;28;20053;-74
2021/12/06 03:46:21;;;;;;;35.47;14.90;;;;;;;0.82;100.00;101470.63;5025238;28;20033;-73
2021/12/06 03:48:47;;;;;;;31.58;13.88;;;;;;;0.76;100.00;101459.66;5023701;28;20071;-73
2021/12/06 03:51:14;;;;;;;33.10;14.93;;;;;;;0.89;100.00;101481.56;5022745;28;20025;-73
2021/12/06 03:53:39;;;;;;;30.05;15.10;;;;;;;0.82;100.00;101475.81;5026643;28;20075;-73
2021/12/06 03:56:05;;;;;;;34.15;14.75;;;;;;;0.73;100.00;101472.81;5023560;28;20033;-73
2021/12/06 03:58:31;;;;;;;31.92;16.02;;;;;;;0.71;100.00;101459.88;5023889;28;20485;-73
2021/12/06 04:00:58;;;;;;;29.92;14.10;;;;;;;0.68;100.00;101465.25;5024114;28;20080;-72
2021/12/06 04:03:26;;;;;;;36.42;14.43;;;;;;;0.88;100.00;101497.25;5022316;28;20042;-72
2021/12/06 04:05:53;;;;;;;26.38;12.73;;;;;;;0.82;100.00;101480.19;5027714;28;20056;-72
2021/12/06 04:08:19;;;;;;;32.00;13.02;;;;;;;0.98;100.00;101501.09;5024178;28;20057;-72
2021/12/06 04:10:45;;;;;;;29.58;12.27;;;;;;;0.90;100.00;101485.03;5022705;28;20121;-72
2021/12/06 04:13:11;;;;;;;29.50;13.68;;;;;;;0.96;100.00;101502.94;5031307;28;20056;-72
2021/12/06 04:15:39;;;;;;;31.58;12.65;;;;;;;0.92;100.00;101498.78;5025631;28;20076;-72
2021/12/06 04:18:05;;;;;;;28.48;11.88;;;;;;;0.93;100.00;101510.88;5017964;28;20033;-72
2021/12/06 04:20:30;;;;;;;33.75;13.82;;;;;;;0.85;100.00;101518.16;5023993;28;20393;-72
2021/12/06 04:22:57;;;;;;;31.15;14.63;;;;;;;0.82;100.00;101507.00;5017578;28;20036;-73
2021/12/06 04:25:22;;;;;;;25.95;12.38;;;;;;;0.77;100.00;101505.53;5002627;28;20414;-72
2021/12/06 04:27:54;;;;;;;33.20;13.65;;;;;;;0.78;100.00;101513.28;5029237;28;20025;-72
2021/12/06 04:30:20;;;;;;;;;;;;;;;0.77;100.00;101511.56;5008171;28;20076;-71
2021/12/06 04:32:46;;;;;;;39.17;15.13;;;;;;;0.81;100.00;101513.13;5039330;28;19921;-72
2021/12/06 04:35:12;;;;;;;27.10;12.57;;;;;;;0.84;100.00;101511.28;5006557;28;20035;-72
2021/12/06 04:37:38;;;;;;;32.25;15.23;;;;;;;0.90;100.00;101518.81;5024655;28;20029;-72
2021/12/06 04:40:04;;;;;;;30.48;14.25;;;;;;;0.85;100.00;101519.03;5027516;28;20036;-72
2021/12/06 04:42:29;;;;;;;32.75;15.18;;;;;;;0.89;100.00;101530.09;5024865;28;20037;-72
2021/12/06 04:44:55;;;;;;;38.30;15.43;;;;;;;0.92;100.00;101528.22;5023005;28;20033;-72
2021/12/06 04:47:20;;;;;;;31.85;14.50;;;;;;;0.95;100.00;101527.22;5020614;28;20413;-72
2021/12/06 04:49:46;;;;;;;34.25;14.85;;;;;;;0.95;100.00;101525.47;5029069;28;20029;-72
2021/12/06 04:52:13;;;;;;;33.53;13.30;;;;;;;0.94;100.00;101526.41;5021312;28;20393;-72
2021/12/06 04:54:42;;;;;;;35.67;16.25;;;;;;;0.89;100.00;101524.91;5020660;28;20088;-72
2021/12/06 04:57:31;;;;;;;39.65;14.82;;;;;;;0.88;100.00;101528.44;5026097;28;20484;-71
2021/12/06 05:00:08;;;;;;;31.15;13.35;;;;;;;0.88;100.00;101539.66;5021090;28;20023;-72
2021/12/06 05:02:36;;;;;;;32.17;14.77;;;;;;;0.88;100.00;101538.81;5019114;28;20030;-72
2021/12/06 05:05:16;;;;;;;35.03;16.35;;;;;;;0.66;100.00;101511.22;5028549;28;20013;-72
2021/12/06 05:07:52;;;;;;;34.78;16.95;;;;;;;0.77;100.00;101527.16;5022126;28;20038;-72
2021/12/06 05:10:19;;;;;;;33.45;16.75;;;;;;;0.69;100.00;101518.88;5016039;28;20021;-72
2021/12/06 05:12:46;;;;;;;39.55;16.40;;;;;;;0.65;100.00;101499.13;5026350;28;20045;-72
2021/12/06 05:15:11;;;;;;;44.20;16.20;;;;;;;0.72;100.00;101503.16;5025199;28;20030;-72
2021/12/06 05:17:37;;;;;;;38.92;15.27;;;;;;;0.66;100.00;101511.22;5022519;28;20034;-72
2021/12/06 05:20:05;;;;;;;32.70;14.85;;;;;;;0.65;100.00;101511.28;5024924;28;20140;-72
2021/12/06 05:22:30;;;;;;;37.67;15.60;;;;;;;0.68;100.00;101521.56;5007843;28;20040;-72
2021/12/06 05:24:56;;;;;;;30.88;13.60;;;;;;;0.73;100.00;101530.81;5015990;28;20120;-72
2021/12/06 05:27:27;;;;;;;38.50;15.70;;;;;;;0.74;100.00;101532.50;5020251;28;20104;-72
2021/12/06 05:29:57;;;;;;;39.58;15.20;;;;;;;0.70;100.00;101538.75;5018890;28;20053;-72
2021/12/06 05:32:26;;;;;;;40.88;17.38;;;;;;;0.68;100.00;101534.53;5019844;28;20036;-72
2021/12/06 05:34:57;;;;;;;37.28;15.65;;;;;;;0.61;100.00;101526.19;5023711;28;20032;-73
2021/12/06 05:37:23;;;;;;;40.47;15.00;;;;;;;0.60;100.00;101514.09;5024152;28;20401;-73
2021/12/06 05:39:49;;;;;;;36.00;15.88;;;;;;;0.61;100.00;101515.81;5006560;28;20112;-73
2021/12/06 05:42:15;;;;;;;32.30;15.35;;;;;;;0.77;100.00;101532.34;5008563;28;20045;-72
2021/12/06 05:44:41;;;;;;;26.67;12.63;;;;;;;0.67;100.00;101512.91;5022253;28;20559;-72
2021/12/06 05:47:07;;;;;;;28.35;13.75;;;;;;;0.76;100.00;101530.69;5017781;28;20037;-72
2021/12/06 05:49:33;;;;;;;34.90;15.00;;;;;;;0.72;100.00;101525.69;5024990;28;20048;-72
2021/12/06 05:51:58;;;;;;;33.97;13.57;;;;;;;0.79;100.00;101530.53;5020717;28;20474;-72
2021/12/06 05:54:25;;;;;;;40.00;15.45;;;;;;;0.84;100.00;101542.47;5020210;28;20454;-72
2021/12/06 05:56:52;;;;;;;35.50;15.95;;;;;;;0.79;100.00;101534.91;5019756;28;20533;-72
2021/12/06 05:59:18;;;;;;;29.45;13.35;;;;;;;0.78;100.00;101533.19;5018205;28;20025;-72
2021/12/06 06:01:45;;;;;;;33.42;14.88;;;;;;;0.84;100.00;101537.28;5018384;28;20025;-72
2021/12/06 06:04:11;;;;;;;39.80;16.13;;;;;;;0.74;100.00;101536.84;5023256;28;20057;-72
2021/12/06 06:06:37;;;;;;;34.05;14.60;;;;;;;0.73;100.00;101525.63;5021293;28;20113;-73
2021/12/06 06:09:07;;;;;;;33.88;15.50;;;;;;;0.75;100.00;101520.34;5009366;28;20034;-73
2021/12/06 06:11:34;;;;;;;30.50;12.13;;;;;;;0.70;100.00;101520.56;5020720;28;20390;-72
2021/12/06 06:14:03;;;;;;;36.90;16.38;;;;;;;0.68;100.00;101509.41;5015943;28;20548;-72
2021/12/06 06:16:32;;;;;;;40.33;15.05;;;;;;;0.72;100.00;101518.75;5022178;28;20448;-72
2021/12/06 06:18:58;;;;;;;34.50;15.77;;;;;;;0.64;100.00;101518.25;5020682;28;20029;-73
2021/12/06 06:21:23;;;;;;;25.40;12.00;;;;;;;0.63;100.00;101524.34;5024681;28;20037;-72
2021/12/06 06:23:49;;;;;;;33.03;14.63;;;;;;;0.58;100.00;101495.13;5023981;28;20048;-72
2021/12/06 06:26:14;;;;;;;27.77;12.70;;;;;;;0.64;100.00;101512.22;5019087;28;20397;-72
2021/12/06 06:28:40;;;;;;;36.22;16.00;;;;;;;0.60;100.00;101508.91;5026000;28;20041;-72
2021/12/06 06:31:05;;;;;;;32.85;14.30;;;;;;;0.58;100.00;101513.31;5019589;28;20068;-72
2021/12/06 06:33:30;;;;;;;23.55;11.82;;;;;;;0.49;100.00;101495.56;5021359;28;20489;-72
2021/12/06 06:35:56;;;;;;;31.17;13.23;;;;;;;0.52;100.00;101511.00;5007714;28;20052;-72
2021/12/06 06:38:22;;;;;;;27.40;12.48;;;;;;;0.39;100.00;101484.72;5015174;28;20022;-72
2021/12/06 06:40:49;;;;;;;43.38;15.65;;;;;;;0.42;100.00;101494.16;5012758;28;20402;-71
2021/12/06 06:43:15;;;;;;;39.97;15.30;;;;;;;0.51;100.00;101509.31;5010924;28;20083;-71
2021/12/06 06:45:40;;;;;;;32.38;13.38;;;;;;;0.51;100.00;101506.72;5015248;28;20042;-72
2021/12/06 06:48:06;;;;;;;42.58;15.88;;;;;;;0.36;100.00;101480.53;5013852;28;20026;-72
2021/12/06 06:50:31;;;;;;;35.03;14.32;;;;;;;0.33;100.00;101483.28;5018823;28;20037;-71
2021/12/06 06:52:57;;;;;;;37.83;14.15;;;;;;;0.42;100.00;101500.19;5017602;28;20042;-71
2021/12/06 06:55:23;;;;;;;30.33;13.15;;;;;;;0.49;100.00;101498.16;5012889;28;20429;-72
2021/12/06 06:57:51;;;;;;;34.20;13.95;;;;;;;0.44;100.00;101500.13;5016731;28;20084;-72
2021/12/06 07:00:36;;;;;;;34.35;16.75;;;;;;;0.49;100.00;101498.16;5016963;28;20044;-72
2021/12/06 07:03:04;;;;;;;39.75;15.07;;;;;;;0.29;100.00;101455.75;5011784;28;20030;-72
2021/12/06 07:05:29;;;;;;;35.85;15.93;;;;;;;0.44;100.00;101495.78;5019593;28;20076;-71
2021/12/06 07:07:56;;;;;;;33.97;16.10;;;;;;;0.46;100.00;101498.28;5006890;28;20044;-72
2021/12/06 07:10:23;;;;;;;34.53;14.35;;;;;;;0.47;100.00;101493.03;5021339;28;20445;-71
2021/12/06 07:12:50;;;;;;;35.42;15.93;;;;;;;0.30;100.00;101479.94;5027268;28;20111;-71
2021/12/06 07:15:19;;;;;;;34.28;14.55;;;;;;;0.48;100.00;101504.25;5025130;28;20059;-72
2021/12/06 07:17:45;;;;;;;33.00;15.68;;;;;;;0.44;100.00;101493.19;5023315;28;20022;-72
2021/12/06 07:20:12;;;;;;;46.38;16.48;;;;;;;0.49;100.00;101499.00;5028643;28;20064;-72
2021/12/06 07:22:38;;;;;;;43.88;16.52;;;;;;;0.48;100.00;101512.03;5022245;28;20433;-72
2021/12/06 07:25:05;;;;;;;29.13;15.27;;;;;;;0.15;100.00;101460.69;5028798;28;20417;-71
2021/12/06 07:27:31;;;;;;;34.00;16.25;;;;;;;0.46;100.00;101506.06;5019523;28;20053;-72
2021/12/06 07:29:57;;;;;;;34.00;15.40;;;;;;;0.47;100.00;101512.97;5023483;28;20515;-71
2021/12/06 07:32:23;;;;;;;42.05;16.92;;;;;;;0.53;100.00;101513.53;5027463;28;20052;-72
2021/12/06 07:34:50;;;;;;;42.25;18.65;;;;;;;0.52;100.00;101509.25;5025138;28;20028;-72
2021/12/06 07:37:15;;;;;;;35.17;16.17;;;;;;;0.43;100.00;101501.03;5020863;28;20021;-71
2021/12/06 07:39:41;;;;;;;40.03;16.63;;;;;;;0.47;100.00;101518.16;5025506;28;20056;-71
2021/12/06 07:42:11;;;;;;;39.22;17.25;;;;;;;0.52;100.00;101519.66;5025071;28;20125;-71
2021/12/06 07:44:37;;;;;;;36.80;16.67;;;;;;;0.39;100.00;101521.94;5022735;28;20118;-71
2021/12/06 07:47:02;;;;;;;36.38;15.60;;;;;;;0.48;100.00;101538.00;5022829;28;20029;-72
2021/12/06 07:49:28;;;;;;;37.33;15.68;;;;;;;0.53;100.00;101547.31;5014504;28;20160;-71
2021/12/06 07:51:54;;;;;;;33.75;14.65;;;;;;;0.59;100.00;101541.00;5025583;28;20041;-71
2021/12/06 07:54:20;;;;;;;33.22;15.52;;;;;;;0.63;100.00;101539.91;5002147;28;20163;-72
2021/12/06 07:56:45;;;;;;;37.33;16.38;;;;;;;0.63;100.00;101545.13;5018190;28;20109;-72
2021/12/06 07:59:11;;;;;;;36.55;15.07;;;;;;;0.65;100.00;101547.66;5024491;28;20036;-71
2021/12/06 08:01:37;;;;;;;38.80;13.15;;;;;;;0.63;100.00;101545.13;5017399;28;20037;-71
2021/12/06 08:04:03;;;;;;;31.90;15.32;;;;;;;0.65;100.00;101547.66;5020787;28;20032;-71
2021/12/06 08:06:28;;;;;;;35.25;15.15;;;;;;;0.51;100.00;101530.09;5022969;28;20034;-72
2021/12/06 08:08:54;;;;;;;38.72;16.92;;;;;;;0.71;100.00;101544.78;5021366;28;20026;-72
2021/12/06 08:11:21;;;;;;;38.20;15.10;;;;;;;0.58;100.00;101511.56;5017933;28;20525;-72
2021/12/06 08:13:56;;;;;;;35.65;14.90;;;;;;;0.73;100.00;101517.81;5016725;28;20049;-72
2021/12/06 08:16:38;;;;;;;38.95;16.00;;;;;;;0.58;100.00;101489.94;5022085;28;20129;-72
2021/12/06 08:19:04;;;;;;;34.88;14.88;;;;;;;0.74;100.00;101511.72;5033139;28;20032;-72
2021/12/06 08:21:30;;;;;;;41.78;16.27;;;;;;;0.58;100.00;101485.59;5014812;28;20068;-72
2021/12/06 08:23:58;;;;;;;49.63;16.92;;;;;;;0.76;100.00;101501.25;5016744;28;20030;-72
2021/12/06 08:26:26;;;;;;;27.23;12.68;;;;;;;0.55;100.00;101475.34;5016680;28;20077;-72
2021/12/06 08:28:53;;;;;;;34.92;15.43;;;;;;;0.59;100.00;101478.66;5030009;28;20033;-72
2021/12/06 08:31:22;;;;;;;37.65;15.90;;;;;;;0.73;100.00;101499.63;5019800;28;20512;-71
2021/12/06 08:33:49;;;;;;;35.38;15.75;;;;;;;0.77;100.00;101501.19;5020660;28;20025;-72
2021/12/06 08:36:15;;;;;;;40.80;15.90;;;;;;;0.82;100.00;101495.75;5021515;28;20033;-72
2021/12/06 08:38:41;;;;;;;42.33;17.45;;;;;;;0.64;100.00;101460.25;5024217;28;20036;-72
2021/12/06 08:41:10;;;;;;;48.42;17.17;;;;;;;0.89;100.00;101493.72;5022369;28;20021;-73
2021/12/06 08:43:38;;;;;;;35.65;15.52;;;;;;;0.79;100.00;101475.97;5025079;28;20025;-71
2021/12/06 08:46:31;;;;;;;52.63;17.95;;;;;;;0.85;100.00;101486.97;5021611;28;20044;-71
2021/12/06 08:48:57;;;;;;;45.45;18.15;;;;;;;0.82;100.00;101475.81;5018522;28;20068;-72
2021/12/06 08:51:31;;;;;;;34.33;15.82;;;;;;;0.67;100.00;101468.72;5026943;28;20095;-71
2021/12/06 08:54:00;;;;;;;40.58;15.50;;;;;;;0.84;100.00;101485.31;5021194;28;20064;-72
2021/12/06 08:56:27;;;;;;;43.95;17.73;;;;;;;0.74;100.00;101485.75;5019185;28;20474;-72
2021/12/06 08:58:53;;;;;;;39.05;16.77;;;;;;;0.75;100.00;101500.41;5023922;28;20048;-72
2021/12/06 09:01:20;;;;;;;41.60;15.30;;;;;;;0.75;100.00;101479.63;5006538;28;20025;-72
2021/12/06 09:03:45;;;;;;;40.53;16.73;;;;;;;0.80;100.00;101480.22;5007854;28;20041;-72
2021/12/06 09:06:13;;;;;;;44.58;17.48;;;;;;;0.73;100.00;101473.66;5023494;28;20099;-72
2021/12/06 09:08:42;;;;;;;45.50;17.05;;;;;;;0.84;100.00;101493.09;5017725;28;20037;-72
2021/12/06 09:11:08;;;;;;;39.85;17.17;;;;;;;0.73;100.00;101471.06;5020191;28;20477;-72
2021/12/06 09:13:38;;;;;;;34.55;14.75;;;;;;;0.90;100.00;101487.63;5025724;28;20073;-72
2021/12/06 09:16:06;;;;;;;34.78;12.98;;;;;;;0.85;100.00;101490.44;5033899;28;20441;-72
2021/12/06 09:18:37;;;;;;;45.90;17.55;;;;;;;0.93;100.00;101496.09;5015491;28;20317;-72
2021/12/06 09:21:05;;;;;;;49.22;18.80;;;;;;;0.82;100.00;101475.81;5018234;28;20029;-72
2021/12/06 09:23:31;;;;;;;43.50;16.58;;;;;;;0.99;100.00;101500.19;5014710;28;20052;-72
2021/12/06 09:25:56;;;;;;;46.38;17.40;;;;;;;0.98;100.00;101499.34;5015872;28;20033;-72
2021/12/06 09:28:22;;;;;;;46.92;18.38;;;;;;;1.02;100.00;101487.03;5024201;28;20103;-72
2021/12/06 09:30:48;;;;;;;39.90;15.98;;;;;;;1.12;100.00;101501.28;5016104;28;20063;-72
2021/12/06 09:33:15;;;;;;;35.13;14.27;;;;;;;0.86;100.00;101468.72;5022011;28;20087;-72
2021/12/06 09:35:44;;;;;;;30.45;14.43;;;;;;;0.85;100.00;101479.19;5017616;28;20366;-72
2021/12/06 09:38:12;;;;;;;40.20;16.45;;;;;;;1.03;100.00;101504.31;5016187;28;20017;-72
2021/12/06 09:40:42;;;;;;;42.30;15.52;;;;;;;0.96;100.00;101489.94;5015691;28;20034;-72
2021/12/06 09:43:11;;;;;;;38.92;14.88;;;;;;;1.02;100.00;101502.63;5017810;28;20382;-72
2021/12/06 09:45:37;;;;;;;49.72;17.40;;;;;;;1.13;100.00;101507.31;5015047;28;20116;-72
2021/12/06 09:48:04;;;;;;;36.97;14.32;;;;;;;1.12;100.00;101497.84;5024407;28;20037;-72
2021/12/06 09:50:35;;;;;;;28.05;12.73;;;;;;;1.08;100.00;101480.72;5020196;28;20082;-73
2021/12/06 09:53:05;;;;;;;32.47;13.23;;;;;;;1.21;100.00;101498.25;5021470;28;20116;-72
2021/12/06 09:55:32;;;;;;;25.42;10.80;;;;;;;0.97;100.00;101474.25;5022030;28;20155;-72
2021/12/06 09:57:58;;;;;;;37.42;13.63;;;;;;;1.17;100.00;101498.47;5020005;28;20710;-72
2021/12/06 10:00:27;;;;;;;36.75;14.55;;;;;;;1.10;100.00;101477.13;5021905;28;20033;-72
2021/12/06 10:02:53;;;;;;;28.90;13.48;;;;;;;1.10;100.00;101508.31;5023906;28;20087;-72
2021/12/06 10:05:19;;;;;;;42.28;16.67;;;;;;;1.13;100.00;101497.78;5018928;28;20486;-72
2021/12/06 10:07:45;;;;;;;29.65;14.45;;;;;;;1.09;100.00;101485.84;5019889;28;20026;-72
2021/12/06 10:10:13;;;;;;;31.45;12.73;;;;;;;1.10;100.00;101490.13;5024050;28;20111;-72
2021/12/06 10:12:39;;;;;;;34.55;16.50;;;;;;;1.08;100.00;101478.09;5016380;28;20046;-72
2021/12/06 10:15:06;;;;;;;35.83;14.52;;;;;;;1.12;100.00;101477.06;5023363;28;20113;-72
2021/12/06 10:17:32;;;;;;;37.20;16.70;;;;;;;1.23;100.00;101490.38;5019447;28;20547;-72
2021/12/06 10:19:59;;;;;;;34.53;13.43;;;;;;;1.16;100.00;101502.81;5017782;28;20508;-72
2021/12/06 10:22:26;;;;;;;29.23;12.05;;;;;;;1.11;100.00;101485.75;5011440;28;20026;-71
2021/12/06 10:24:56;;;;;;;29.48;13.48;;;;;;;1.06;100.00;101472.97;5016314;28;20302;-71
2021/12/06 10:27:21;;;;;;;29.65;12.40;;;;;;;1.14;100.00;101480.41;5013516;28;20029;-72
2021/12/06 10:29:54;;;;;;;34.17;14.52;;;;;;;1.20;100.00;101475.75;5022690;28;20075;-72
2021/12/06 10:32:27;;;;;;;30.60;14.85;;;;;;;1.16;100.00;101452.59;5016255;28;20156;-72
2021/12/06 10:34:59;;;;;;;42.83;14.88;;;;;;;1.33;100.00;101467.34;5020153;28;20037;-72
2021/12/06 10:37:36;;;;;;;39.67;14.75;;;;;;;1.30;100.00;101457.09;5022108;28;20040;-72
2021/12/06 10:40:05;;;;;;;34.40;16.15;;;;;;;1.28;100.00;101451.13;5023971;28;20021;-72
2021/12/06 10:42:34;;;;;;;43.88;17.10;;;;;;;1.29;100.00;101443.28;5022283;28;20367;-72
2021/12/06 10:45:07;;;;;;;31.90;13.23;;;;;;;1.30;100.00;101431.09;5026573;28;20041;-73
2021/12/06 10:47:33;;;;;;;35.42;14.95;;;;;;;1.25;100.00;101430.50;5025608;28;20029;-72
2021/12/06 10:50:14;;;;;;;33.63;13.35;;;;;;;1.11;100.00;101416.41;5024187;28;20030;-73
2021/12/06 10:52:55;;;;;;;28.90;13.95;;;;;;;1.09;100.00;101432.97;5026927;28;20034;-72
2021/12/06 10:55:22;;;;;;;;;;;;;;;1.12;100.00;101430.25;5026239;28;20453;-71
2021/12/06 10:57:52;;;;;;;27.25;11.52;;;;;;;1.01;100.00;101433.38;5033789;28;20585;-73
2021/12/06 11:00:52;;;;;;;28.45;12.90;;;;;;;1.04;100.00;101425.41;5025766;28;20025;-72
2021/12/06 11:03:31;;;;;;;24.40;9.75;;;;;;;0.98;100.00;101430.91;5015146;28;20041;-73
2021/12/06 11:06:13;;;;;;;33.95;12.35;;;;;;;1.05;100.00;101428.88;5019450;28;20069;-72
2021/12/06 11:08:40;;;;;;;31.85;14.20;;;;;;;1.07;100.00;101416.63;4998206;28;20065;-72
2021/12/06 11:11:09;;;;;;;28.25;12.02;;;;;;;1.07;100.00;101408.81;5015313;28;20037;-73
2021/12/06 11:13:41;;;;;;;28.05;12.38;;;;;;;0.88;100.00;101383.75;5005630;28;20037;-73
2021/12/06 11:16:11;;;;;;;36.13;14.82;;;;;;;1.15;100.00;101414.50;5019226;28;20080;-73
2021/12/06 11:18:47;;;;;;;24.75;12.63;;;;;;;1.14;100.00;101403.25;5018018;28;20025;-73
2021/12/06 11:21:20;;;;;;;35.00;14.27;;;;;;;1.06;100.00;101407.97;5017106;28;20522;-73
2021/12/06 11:24:22;;;;;;;31.90;14.05;;;;;;;1.03;100.00;101402.94;5020435;28;20052;-73
2021/12/06 11:26:51;;;;;;;34.38;15.73;;;;;;;1.10;100.00;101395.69;5009727;28;20042;-72
2021/12/06 11:29:20;;;;;;;32.17;13.95;;;;;;;1.11;100.00;101395.63;5014807;28;20033;-72